Time,TemperatureF,DewpointF,PressureIn,WindDirection,WindDirectionDegrees,WindSpeedMPH,WindSpeedGustMPH,Humidity,HourlyPrecipIn,Conditions,Clouds,dailyrainin,SolarRadiationWatts/m^2,SoftwareType,DateUTC
2013-12-07 00:03:00,46.2,44.1,29.92,West,261,8.1,8.9,92,0.27,,,0.00,0.0,meteobridge,2013-12-07 08:03:00,
2013-12-07 00:08:00,46.0,43.9,29.92,WSW,252,4.0,11.0,92,0.25,,,0.00,0.0,meteobridge,2013-12-07 08:08:00,
2013-12-07 00:13:00,46.0,43.9,29.92,WSW,245,8.1,8.9,92,0.24,,,0.00,0.0,meteobridge,2013-12-07 08:13:00,
2013-12-07 00:18:00,45.9,43.9,29.92,SSW,200,0.9,10.1,93,0.24,,,0.01,0.0,meteobridge,2013-12-07 08:18:00,
2013-12-07 00:23:00,46.0,44.1,29.92,WNW,284,2.9,10.1,93,0.23,,,0.03,0.0,meteobridge,2013-12-07 08:23:00,
2013-12-07 00:28:00,46.0,44.1,29.93,WNW,301,4.0,11.0,93,0.22,,,0.05,0.0,meteobridge,2013-12-07 08:28:00,
2013-12-07 00:33:00,46.0,44.1,29.93,WSW,242,11.0,11.0,93,0.16,,,0.07,0.0,meteobridge,2013-12-07 08:33:00,
2013-12-07 00:38:00,46.0,44.1,29.93,WNW,291,2.9,8.1,93,0.13,,,0.08,0.0,meteobridge,2013-12-07 08:38:00,
2013-12-07 00:43:00,46.2,44.2,29.92,WNW,282,2.0,10.1,93,0.13,,,0.09,0.0,meteobridge,2013-12-07 08:43:00,
2013-12-07 00:48:00,46.2,44.2,29.92,WNW,287,4.0,13.0,93,0.11,,,0.10,0.0,meteobridge,2013-12-07 08:48:00,
2013-12-07 00:53:00,46.4,44.2,29.92,WSW,243,2.9,6.0,92,0.10,,,0.10,0.0,meteobridge,2013-12-07 08:53:00,
2013-12-07 00:58:00,46.4,44.2,29.92,SW,224,4.0,8.1,92,0.10,,,0.10,0.0,meteobridge,2013-12-07 08:58:00,
2013-12-07 01:03:00,46.2,44.2,29.91,WSW,251,4.9,8.9,93,0.10,,,0.10,0.0,meteobridge,2013-12-07 09:03:00,
2013-12-07 01:09:00,46.2,44.2,29.91,SW,224,4.0,8.1,93,0.10,,,0.10,0.0,meteobridge,2013-12-07 09:09:00,
2013-12-07 01:14:00,46.2,44.2,29.92,WSW,244,8.1,10.1,93,0.10,,,0.11,0.0,meteobridge,2013-12-07 09:14:00,
2013-12-07 01:19:00,46.2,44.2,29.91,WSW,249,4.0,12.1,93,0.10,,,0.11,0.0,meteobridge,2013-12-07 09:19:00,
2013-12-07 01:24:00,46.0,43.9,29.91,WSW,247,8.1,8.1,92,0.08,,,0.11,0.0,meteobridge,2013-12-07 09:24:00,
2013-12-07 01:29:00,46.0,43.9,29.92,West,262,4.0,6.9,92,0.06,,,0.11,0.0,meteobridge,2013-12-07 09:29:00,
2013-12-07 01:34:00,46.0,44.1,29.92,WSW,242,0.9,6.9,93,0.04,,,0.11,0.0,meteobridge,2013-12-07 09:34:00,
2013-12-07 01:39:00,46.0,44.1,29.92,WSW,241,2.0,6.0,93,0.03,,,0.11,0.0,meteobridge,2013-12-07 09:39:00,
2013-12-07 01:44:00,46.0,44.1,29.92,WNW,294,4.9,6.9,93,0.02,,,0.11,0.0,meteobridge,2013-12-07 09:44:00,
2013-12-07 01:49:00,46.0,44.1,29.92,West,280,2.9,10.1,93,0.01,,,0.11,0.0,meteobridge,2013-12-07 09:49:00,
2013-12-07 01:54:00,46.0,44.1,29.92,WNW,289,2.0,6.9,93,0.01,,,0.11,0.0,meteobridge,2013-12-07 09:54:00,
2013-12-07 01:59:00,46.0,44.1,29.92,WSW,250,2.9,15.0,93,0.01,,,0.11,0.0,meteobridge,2013-12-07 09:59:00,
2013-12-07 02:04:00,46.0,44.1,29.92,WSW,251,4.9,11.0,93,0.01,,,0.11,0.0,meteobridge,2013-12-07 10:04:00,
2013-12-07 02:09:00,45.9,43.7,29.92,WSW,256,4.9,12.1,92,0.01,,,0.11,0.0,meteobridge,2013-12-07 10:09:00,
2013-12-07 02:14:00,45.9,43.3,29.92,WSW,245,2.0,8.9,91,0.00,,,0.11,0.0,meteobridge,2013-12-07 10:14:00,
2013-12-07 02:19:00,45.7,43.2,29.93,West,268,6.0,8.1,91,0.00,,,0.11,0.0,meteobridge,2013-12-07 10:19:00,
2013-12-07 02:24:00,45.5,42.8,29.93,WSW,252,4.0,10.1,90,0.00,,,0.11,0.0,meteobridge,2013-12-07 10:24:00,
2013-12-07 02:29:00,45.3,42.3,29.92,SSW,209,4.9,10.1,89,0.00,,,0.11,0.0,meteobridge,2013-12-07 10:29:00,
2013-12-07 02:34:00,45.1,42.1,29.93,WSW,249,4.0,8.9,89,0.00,,,0.11,0.0,meteobridge,2013-12-07 10:34:00,
2013-12-07 02:39:00,45.0,41.9,29.93,WSW,251,6.9,15.0,89,0.00,,,0.11,0.0,meteobridge,2013-12-07 10:39:00,
2013-12-07 02:44:00,45.0,41.9,29.93,WSW,247,6.9,8.9,89,0.00,,,0.11,0.0,meteobridge,2013-12-07 10:44:00,
2013-12-07 02:49:00,44.8,41.7,29.93,West,262,2.0,8.1,89,0.00,,,0.11,0.0,meteobridge,2013-12-07 10:49:00,
2013-12-07 02:54:00,44.4,41.4,29.94,West,276,2.0,6.0,89,0.00,,,0.11,0.0,meteobridge,2013-12-07 10:54:00,
2013-12-07 02:59:00,44.2,41.0,29.94,WSW,254,2.0,6.9,88,0.00,,,0.11,0.0,meteobridge,2013-12-07 10:59:00,
2013-12-07 03:04:00,44.1,40.8,29.95,WSW,256,4.9,8.1,88,0.00,,,0.11,0.0,meteobridge,2013-12-07 11:04:00,
2013-12-07 03:09:00,43.9,40.8,29.95,SW,234,4.0,8.1,89,0.00,,,0.11,0.0,meteobridge,2013-12-07 11:09:00,
2013-12-07 03:14:00,43.5,40.3,29.95,SSW,211,2.9,6.0,88,0.00,,,0.11,0.0,meteobridge,2013-12-07 11:14:00,
2013-12-07 03:19:00,43.5,40.3,29.96,SW,229,2.0,4.0,88,0.00,,,0.11,0.0,meteobridge,2013-12-07 11:19:00,
2013-12-07 03:24:00,43.3,40.1,29.96,West,262,2.9,6.0,88,0.00,,,0.11,0.0,meteobridge,2013-12-07 11:24:00,
2013-12-07 03:29:00,43.0,39.7,29.96,West,265,2.0,4.9,88,0.00,,,0.11,0.0,meteobridge,2013-12-07 11:29:00,
2013-12-07 03:35:00,42.8,39.2,29.96,West,263,0.9,2.9,87,0.00,,,0.11,0.0,meteobridge,2013-12-07 11:35:00,
2013-12-07 03:40:00,42.6,39.0,29.96,SW,235,4.9,4.9,87,0.00,,,0.11,0.0,meteobridge,2013-12-07 11:40:00,
2013-12-07 03:45:00,42.4,38.8,29.97,West,260,6.0,6.0,87,0.00,,,0.11,0.0,meteobridge,2013-12-07 11:45:00,
2013-12-07 03:50:00,42.4,38.8,29.96,WSW,248,2.9,8.1,87,0.00,,,0.11,0.0,meteobridge,2013-12-07 11:50:00,
2013-12-07 03:55:00,42.4,38.8,29.97,West,269,2.0,8.1,87,0.00,,,0.11,0.0,meteobridge,2013-12-07 11:55:00,
2013-12-07 04:00:00,42.3,38.7,29.97,WSW,240,2.9,6.0,87,0.00,,,0.11,0.0,meteobridge,2013-12-07 12:00:00,
2013-12-07 04:05:00,42.1,38.8,29.97,WSW,245,4.0,8.1,88,0.00,,,0.11,0.0,meteobridge,2013-12-07 12:05:00,
2013-12-07 04:10:00,41.9,38.7,29.97,West,278,2.0,8.1,88,0.00,,,0.11,0.0,meteobridge,2013-12-07 12:10:00,
2013-12-07 04:15:00,41.5,38.3,29.97,West,272,2.0,6.0,88,0.00,,,0.11,0.0,meteobridge,2013-12-07 12:15:00,
2013-12-07 04:20:00,41.5,38.3,29.97,WSW,258,2.0,6.9,88,0.00,,,0.11,0.0,meteobridge,2013-12-07 12:20:00,
2013-12-07 04:25:00,41.4,38.1,29.97,West,262,4.0,6.9,88,0.00,,,0.11,0.0,meteobridge,2013-12-07 12:25:00,
2013-12-07 04:30:00,41.2,37.6,29.97,WNW,290,2.0,8.9,87,0.00,,,0.11,0.0,meteobridge,2013-12-07 12:30:00,
2013-12-07 04:35:00,41.0,36.9,29.97,West,267,0.9,6.9,85,0.00,,,0.11,0.0,meteobridge,2013-12-07 12:35:00,
2013-12-07 04:40:00,41.0,36.3,29.97,West,265,2.0,6.9,83,0.00,,,0.11,0.0,meteobridge,2013-12-07 12:40:00,
2013-12-07 04:45:00,41.2,35.2,29.98,WNW,288,2.9,8.9,79,0.00,,,0.11,0.0,meteobridge,2013-12-07 12:45:00,
2013-12-07 04:50:00,41.2,34.9,29.98,WSW,256,2.9,8.1,78,0.00,,,0.11,0.0,meteobridge,2013-12-07 12:50:00,
2013-12-07 04:55:00,41.4,34.7,29.98,WSW,258,2.9,8.9,77,0.00,,,0.11,0.0,meteobridge,2013-12-07 12:55:00,
2013-12-07 05:01:00,41.4,34.7,29.98,West,279,4.0,10.1,77,0.00,,,0.11,0.0,meteobridge,2013-12-07 13:01:00,
2013-12-07 05:06:00,41.4,34.3,29.99,WNW,300,8.1,8.1,76,0.00,,,0.11,0.0,meteobridge,2013-12-07 13:06:00,
2013-12-07 05:11:00,41.2,33.4,29.98,NW,315,0.9,4.9,74,0.00,,,0.11,0.0,meteobridge,2013-12-07 13:11:00,
2013-12-07 05:16:00,41.2,33.8,29.99,WNW,287,0.9,6.0,75,0.00,,,0.11,0.0,meteobridge,2013-12-07 13:16:00,
2013-12-07 05:21:00,40.8,33.4,29.99,West,260,0.9,6.9,75,0.00,,,0.11,0.0,meteobridge,2013-12-07 13:21:00,
2013-12-07 05:26:00,40.8,33.3,29.99,West,265,2.9,8.1,74,0.00,,,0.11,0.0,meteobridge,2013-12-07 13:26:00,
2013-12-07 05:31:00,40.8,33.3,29.99,NW,305,2.9,8.1,74,0.00,,,0.11,0.0,meteobridge,2013-12-07 13:31:00,
2013-12-07 05:36:00,40.8,32.9,29.99,WSW,247,2.9,8.1,73,0.00,,,0.11,0.0,meteobridge,2013-12-07 13:36:00,
2013-12-07 05:41:00,40.6,32.4,30.00,NW,319,4.0,6.0,72,0.00,,,0.11,0.0,meteobridge,2013-12-07 13:41:00,
2013-12-07 05:46:00,40.6,32.7,30.00,West,281,6.0,8.1,73,0.00,,,0.11,0.0,meteobridge,2013-12-07 13:46:00,
2013-12-07 05:51:00,40.6,33.1,30.00,WSW,247,2.0,8.1,74,0.00,,,0.11,0.0,meteobridge,2013-12-07 13:51:00,
2013-12-07 05:56:00,40.5,33.1,30.00,SW,236,2.0,10.1,75,0.00,,,0.11,0.0,meteobridge,2013-12-07 13:56:00,
2013-12-07 06:01:00,40.1,33.4,30.00,WSW,246,4.0,8.1,77,0.00,,,0.11,0.0,meteobridge,2013-12-07 14:01:00,
2013-12-07 06:06:00,39.9,33.3,30.01,WSW,245,4.9,8.9,77,0.00,,,0.11,0.0,meteobridge,2013-12-07 14:06:00,
2013-12-07 06:11:00,39.7,33.4,30.01,WSW,256,4.0,6.9,78,0.00,,,0.11,0.0,meteobridge,2013-12-07 14:11:00,
2013-12-07 06:16:00,39.6,33.6,30.01,WSW,247,2.9,4.0,79,0.00,,,0.11,0.0,meteobridge,2013-12-07 14:16:00,
2013-12-07 06:21:00,39.2,33.3,30.01,WSW,256,2.9,4.0,79,0.00,,,0.11,0.0,meteobridge,2013-12-07 14:21:00,
2013-12-07 06:27:00,38.8,32.9,30.02,WSW,258,6.0,6.0,79,0.00,,,0.11,0.0,meteobridge,2013-12-07 14:27:00,
2013-12-07 06:32:00,38.7,32.7,30.02,WSW,245,2.0,4.9,79,0.00,,,0.11,0.0,meteobridge,2013-12-07 14:32:00,
2013-12-07 06:37:00,38.7,33.1,30.02,WSW,249,2.0,4.9,80,0.00,,,0.11,0.0,meteobridge,2013-12-07 14:37:00,
2013-12-07 06:42:00,38.5,32.9,30.02,WSW,239,2.9,2.9,80,0.00,,,0.11,0.0,meteobridge,2013-12-07 14:42:00,
2013-12-07 06:47:00,38.3,32.4,30.03,WSW,245,2.9,6.9,79,0.00,,,0.11,0.0,meteobridge,2013-12-07 14:47:00,
2013-12-07 06:52:00,38.3,32.4,30.03,WSW,244,2.9,6.9,79,0.00,,,0.11,0.0,meteobridge,2013-12-07 14:52:00,
2013-12-07 06:57:00,38.5,32.5,30.03,WSW,240,2.9,6.9,79,0.00,,,0.11,0.0,meteobridge,2013-12-07 14:57:00,
2013-12-07 07:02:00,38.5,32.2,30.03,West,260,4.0,6.9,78,0.00,,,0.11,0.0,meteobridge,2013-12-07 15:02:00,
2013-12-07 07:07:00,38.7,32.4,30.03,West,268,2.0,6.9,78,0.00,,,0.11,0.0,meteobridge,2013-12-07 15:07:00,
2013-12-07 07:12:00,38.5,32.2,30.03,WSW,256,2.0,4.0,78,0.00,,,0.11,5.0,meteobridge,2013-12-07 15:12:00,
2013-12-07 07:17:00,38.5,31.8,30.03,WSW,240,4.0,4.9,77,0.00,,,0.11,7.0,meteobridge,2013-12-07 15:17:00,
2013-12-07 07:22:00,38.5,32.2,30.03,SW,233,2.0,4.0,78,0.00,,,0.11,11.0,meteobridge,2013-12-07 15:22:00,
2013-12-07 07:27:00,38.3,32.0,30.04,WSW,243,2.0,4.0,78,0.00,,,0.11,12.0,meteobridge,2013-12-07 15:27:00,
2013-12-07 07:32:00,38.1,31.8,30.04,NW,316,0.0,11.0,78,0.00,,,0.11,12.0,meteobridge,2013-12-07 15:32:00,
2013-12-07 07:37:00,38.1,31.3,30.04,WSW,243,0.9,6.0,76,0.00,,,0.11,18.0,meteobridge,2013-12-07 15:37:00,
2013-12-07 07:42:00,38.5,31.6,30.04,NW,304,11.0,12.1,76,0.00,,,0.11,21.0,meteobridge,2013-12-07 15:42:00,
2013-12-07 07:47:00,38.8,31.3,30.05,WSW,237,2.9,10.1,74,0.00,,,0.11,23.0,meteobridge,2013-12-07 15:47:00,
2013-12-07 07:53:00,39.4,31.8,30.05,West,267,6.9,8.1,74,0.00,,,0.11,25.0,meteobridge,2013-12-07 15:53:00,
2013-12-07 07:58:00,39.6,31.3,30.05,WSW,258,2.0,10.1,72,0.00,,,0.11,28.0,meteobridge,2013-12-07 15:58:00,
2013-12-07 08:03:00,39.9,31.6,30.06,WNW,295,2.9,8.9,72,0.00,,,0.11,30.0,meteobridge,2013-12-07 16:03:00,
2013-12-07 08:08:00,40.1,31.8,30.06,West,268,2.9,4.9,72,0.00,,,0.11,32.0,meteobridge,2013-12-07 16:08:00,
2013-12-07 08:13:00,40.3,31.6,30.06,West,281,0.9,6.0,71,0.00,,,0.11,47.0,meteobridge,2013-12-07 16:13:00,
2013-12-07 08:18:00,40.5,31.8,30.06,WSW,257,2.0,6.0,71,0.00,,,0.11,130.0,meteobridge,2013-12-07 16:18:00,
2013-12-07 08:23:00,40.6,32.0,30.06,NNW,335,4.0,6.0,71,0.00,,,0.11,149.0,meteobridge,2013-12-07 16:23:00,
2013-12-07 08:28:00,41.0,32.4,30.07,NW,305,2.9,6.0,71,0.00,,,0.11,165.0,meteobridge,2013-12-07 16:28:00,
2013-12-07 08:33:00,41.4,32.0,30.07,NW,312,2.0,10.1,69,0.00,,,0.11,176.0,meteobridge,2013-12-07 16:33:00,
2013-12-07 08:38:00,41.5,32.5,30.08,West,270,2.9,4.9,70,0.00,,,0.11,190.0,meteobridge,2013-12-07 16:38:00,
2013-12-07 08:43:00,41.7,32.4,30.08,WNW,285,2.0,6.0,69,0.00,,,0.11,204.0,meteobridge,2013-12-07 16:43:00,
2013-12-07 08:48:00,42.1,32.7,30.08,West,271,2.0,6.0,69,0.00,,,0.11,220.0,meteobridge,2013-12-07 16:48:00,
2013-12-07 08:53:00,42.3,33.3,30.08,WSW,244,0.9,6.0,70,0.00,,,0.11,232.0,meteobridge,2013-12-07 16:53:00,
2013-12-07 08:58:00,42.4,32.7,30.08,NW,305,0.9,12.1,68,0.00,,,0.11,244.0,meteobridge,2013-12-07 16:58:00,
2013-12-07 09:03:00,42.6,32.4,30.08,WNW,289,4.0,8.9,67,0.00,,,0.11,257.0,meteobridge,2013-12-07 17:03:00,
2013-12-07 09:08:00,43.0,32.4,30.09,WSW,246,11.0,11.0,66,0.00,,,0.11,269.0,meteobridge,2013-12-07 17:08:00,
2013-12-07 09:13:00,43.2,32.5,30.09,West,276,2.9,6.9,66,0.00,,,0.11,279.0,meteobridge,2013-12-07 17:13:00,
2013-12-07 09:18:00,43.3,32.4,30.09,West,270,2.9,8.1,65,0.00,,,0.11,292.0,meteobridge,2013-12-07 17:18:00,
2013-12-07 09:23:00,43.5,32.2,30.09,WNW,301,6.9,12.1,64,0.00,,,0.11,308.0,meteobridge,2013-12-07 17:23:00,
2013-12-07 09:28:00,43.7,31.5,30.10,WNW,293,4.0,11.0,62,0.00,,,0.11,318.0,meteobridge,2013-12-07 17:28:00,
2013-12-07 09:34:00,43.9,31.6,30.10,West,268,8.9,8.9,62,0.00,,,0.11,330.0,meteobridge,2013-12-07 17:34:00,
2013-12-07 09:39:00,43.9,30.9,30.10,West,274,2.9,15.0,60,0.00,,,0.11,343.0,meteobridge,2013-12-07 17:39:00,
2013-12-07 09:44:00,43.9,30.9,30.10,WNW,295,12.1,13.0,60,0.00,,,0.11,353.0,meteobridge,2013-12-07 17:44:00,
2013-12-07 09:49:00,44.1,31.5,30.10,NW,306,4.9,11.0,61,0.00,,,0.11,366.0,meteobridge,2013-12-07 17:49:00,
2013-12-07 09:54:00,44.1,31.1,30.10,WSW,253,2.0,13.0,60,0.00,,,0.11,376.0,meteobridge,2013-12-07 17:54:00,
2013-12-07 09:59:00,44.4,30.9,30.10,NNW,335,4.0,11.0,59,0.00,,,0.11,388.0,meteobridge,2013-12-07 17:59:00,
2013-12-07 10:04:00,44.8,30.9,30.10,WSW,244,8.1,10.1,58,0.00,,,0.11,399.0,meteobridge,2013-12-07 18:04:00,
2013-12-07 10:09:00,44.8,30.0,30.10,NW,308,4.0,10.1,56,0.00,,,0.11,408.0,meteobridge,2013-12-07 18:09:00,
2013-12-07 10:14:00,45.0,30.6,30.11,NW,324,4.0,10.1,57,0.00,,,0.11,306.0,meteobridge,2013-12-07 18:14:00,
2013-12-07 10:19:00,45.3,30.0,30.11,NW,318,4.0,8.1,55,0.00,,,0.11,429.0,meteobridge,2013-12-07 18:19:00,
2013-12-07 10:24:00,45.3,29.1,30.11,West,265,6.9,16.1,53,0.00,,,0.11,378.0,meteobridge,2013-12-07 18:24:00,
2013-12-07 10:29:00,45.5,30.2,30.11,WNW,285,8.9,10.1,55,0.00,,,0.11,455.0,meteobridge,2013-12-07 18:29:00,
2013-12-07 10:34:00,45.5,29.8,30.11,West,261,2.9,11.0,54,0.00,,,0.11,464.0,meteobridge,2013-12-07 18:34:00,
2013-12-07 10:39:00,46.0,30.4,30.10,WNW,287,6.9,11.0,54,0.00,,,0.11,468.0,meteobridge,2013-12-07 18:39:00,
2013-12-07 10:44:00,46.0,29.5,30.10,West,261,10.1,15.0,52,0.00,,,0.11,478.0,meteobridge,2013-12-07 18:44:00,
2013-12-07 10:49:00,45.7,28.6,30.10,West,274,8.1,17.9,51,0.00,,,0.11,485.0,meteobridge,2013-12-07 18:49:00,
2013-12-07 10:54:00,45.9,29.7,30.10,WNW,293,6.9,8.9,53,0.00,,,0.11,492.0,meteobridge,2013-12-07 18:54:00,
2013-12-07 10:59:00,45.7,28.0,30.10,WNW,289,4.0,10.1,50,0.00,,,0.11,496.0,meteobridge,2013-12-07 18:59:00,
2013-12-07 11:04:00,45.9,27.3,30.10,WNW,298,2.0,14.1,48,0.00,,,0.11,503.0,meteobridge,2013-12-07 19:04:00,
2013-12-07 11:09:00,45.9,28.2,30.10,West,270,10.1,12.1,50,0.00,,,0.11,510.0,meteobridge,2013-12-07 19:09:00,
2013-12-07 11:14:00,46.0,28.4,30.10,WNW,297,6.9,13.0,50,0.00,,,0.11,512.0,meteobridge,2013-12-07 19:14:00,
2013-12-07 11:20:00,46.2,27.7,30.10,West,275,13.0,16.1,48,0.00,,,0.11,522.0,meteobridge,2013-12-07 19:20:00,
2013-12-07 11:25:00,46.0,26.4,30.10,WNW,299,13.0,15.0,46,0.00,,,0.11,527.0,meteobridge,2013-12-07 19:25:00,
2013-12-07 11:30:00,46.6,27.0,30.10,WNW,295,11.0,15.0,46,0.00,,,0.11,533.0,meteobridge,2013-12-07 19:30:00,
2013-12-07 11:35:00,46.6,25.9,30.10,WNW,301,8.1,19.9,44,0.00,,,0.11,533.0,meteobridge,2013-12-07 19:35:00,
2013-12-07 11:40:00,46.4,26.2,30.09,NNW,341,10.1,12.1,45,0.00,,,0.11,531.0,meteobridge,2013-12-07 19:40:00,
2013-12-07 11:45:00,46.8,26.6,30.09,WSW,253,2.9,19.0,45,0.00,,,0.11,529.0,meteobridge,2013-12-07 19:45:00,
2013-12-07 11:50:00,46.8,27.1,30.09,NW,318,4.9,10.1,46,0.00,,,0.11,533.0,meteobridge,2013-12-07 19:50:00,
2013-12-07 11:55:00,46.8,26.6,30.09,NW,310,8.1,12.1,45,0.00,,,0.11,533.0,meteobridge,2013-12-07 19:55:00,
2013-12-07 12:00:00,46.9,26.8,30.09,WNW,290,6.9,14.1,45,0.00,,,0.11,533.0,meteobridge,2013-12-07 20:00:00,
2013-12-07 12:05:00,47.1,26.2,30.09,West,274,8.1,15.0,44,0.00,,,0.11,533.0,meteobridge,2013-12-07 20:05:00,
2013-12-07 12:10:00,46.9,25.5,30.09,SW,233,8.9,16.1,43,0.00,,,0.11,531.0,meteobridge,2013-12-07 20:10:00,
2013-12-07 12:16:00,46.8,26.1,30.09,NW,322,11.0,11.0,44,0.00,,,0.11,529.0,meteobridge,2013-12-07 20:16:00,
2013-12-07 12:21:00,46.8,26.1,30.09,West,260,8.1,14.1,44,0.00,,,0.11,527.0,meteobridge,2013-12-07 20:21:00,
2013-12-07 12:26:00,46.6,25.9,30.09,WNW,291,6.9,17.9,44,0.00,,,0.11,522.0,meteobridge,2013-12-07 20:26:00,
2013-12-07 12:31:00,46.8,26.1,30.08,NW,318,13.0,13.0,44,0.00,,,0.11,522.0,meteobridge,2013-12-07 20:31:00,
2013-12-07 12:36:00,46.6,25.3,30.09,WNW,285,4.0,17.9,43,0.00,,,0.11,519.0,meteobridge,2013-12-07 20:36:00,
2013-12-07 12:41:00,46.6,25.3,30.09,NW,312,4.9,16.1,43,0.00,,,0.11,517.0,meteobridge,2013-12-07 20:41:00,
2013-12-07 12:46:00,46.2,24.4,30.09,West,260,12.1,23.9,42,0.00,,,0.11,513.0,meteobridge,2013-12-07 20:46:00,
2013-12-07 12:51:00,46.6,25.3,30.08,SW,221,6.0,15.0,43,0.00,,,0.11,506.0,meteobridge,2013-12-07 20:51:00,
2013-12-07 12:56:00,46.8,24.3,30.09,WSW,252,12.1,17.9,41,0.00,,,0.11,499.0,meteobridge,2013-12-07 20:56:00,
2013-12-07 13:01:00,46.6,24.1,30.08,WNW,292,10.1,17.9,41,0.00,,,0.11,499.0,meteobridge,2013-12-07 21:01:00,
2013-12-07 13:06:00,46.8,24.8,30.08,West,267,4.0,13.0,42,0.00,,,0.11,492.0,meteobridge,2013-12-07 21:06:00,
2013-12-07 13:11:00,46.9,25.0,30.08,WNW,287,10.1,16.1,42,0.00,,,0.11,485.0,meteobridge,2013-12-07 21:11:00,
2013-12-07 13:16:00,47.1,25.7,30.08,NW,318,2.0,11.0,43,0.00,,,0.11,478.0,meteobridge,2013-12-07 21:16:00,
2013-12-07 13:21:00,47.5,25.5,30.08,NW,305,10.1,12.1,42,0.00,,,0.11,476.0,meteobridge,2013-12-07 21:21:00,
2013-12-07 13:26:00,46.9,25.5,30.08,NW,308,4.9,13.0,43,0.00,,,0.11,473.0,meteobridge,2013-12-07 21:26:00,
2013-12-07 13:31:00,46.9,25.5,30.08,WSW,250,4.9,11.0,43,0.00,,,0.11,469.0,meteobridge,2013-12-07 21:31:00,
2013-12-07 13:36:00,47.7,27.3,30.08,NNW,346,4.0,8.9,45,0.00,,,0.11,464.0,meteobridge,2013-12-07 21:36:00,
2013-12-07 13:41:00,47.1,26.2,30.08,WSW,258,8.1,11.0,44,0.00,,,0.11,455.0,meteobridge,2013-12-07 21:41:00,
2013-12-07 13:46:00,46.8,26.1,30.08,NNW,330,2.0,8.9,44,0.00,,,0.11,380.0,meteobridge,2013-12-07 21:46:00,
2013-12-07 13:51:00,47.1,26.2,30.08,North,350,8.9,10.1,44,0.00,,,0.11,452.0,meteobridge,2013-12-07 21:51:00,
2013-12-07 13:56:00,47.3,26.4,30.09,NW,311,2.0,10.1,44,0.00,,,0.11,429.0,meteobridge,2013-12-07 21:56:00,
2013-12-07 14:01:00,47.5,26.6,30.08,NNW,330,2.9,8.9,44,0.00,,,0.11,104.0,meteobridge,2013-12-07 22:01:00,
2013-12-07 14:06:00,47.5,26.6,30.08,NNW,335,2.9,8.1,44,0.00,,,0.11,104.0,meteobridge,2013-12-07 22:06:00,
2013-12-07 14:11:00,47.5,26.6,30.08,WNW,291,2.9,8.9,44,0.00,,,0.11,81.0,meteobridge,2013-12-07 22:11:00,
2013-12-07 14:16:00,47.5,26.6,30.08,NW,322,4.9,8.9,44,0.00,,,0.11,74.0,meteobridge,2013-12-07 22:16:00,
2013-12-07 14:21:00,47.7,26.2,30.08,NW,318,11.0,11.0,43,0.00,,,0.11,113.0,meteobridge,2013-12-07 22:21:00,
2013-12-07 14:26:00,47.7,25.7,30.09,WNW,293,6.9,13.0,42,0.00,,,0.11,411.0,meteobridge,2013-12-07 22:26:00,
2013-12-07 14:31:00,47.7,25.7,30.09,WNW,289,8.1,8.9,42,0.00,,,0.11,114.0,meteobridge,2013-12-07 22:31:00,
2013-12-07 14:37:00,47.5,26.1,30.09,North,4,4.9,11.0,43,0.00,,,0.11,387.0,meteobridge,2013-12-07 22:37:00,
2013-12-07 14:42:00,47.5,25.5,30.09,NW,317,4.9,11.0,42,0.00,,,0.11,392.0,meteobridge,2013-12-07 22:42:00,
2013-12-07 14:47:00,47.5,26.1,30.09,NNW,342,4.9,11.0,43,0.00,,,0.11,301.0,meteobridge,2013-12-07 22:47:00,
2013-12-07 14:52:00,47.3,25.3,30.10,NNW,327,10.1,14.1,42,0.00,,,0.11,127.0,meteobridge,2013-12-07 22:52:00,
2013-12-07 14:57:00,46.9,25.0,30.10,WNW,301,8.1,11.0,42,0.00,,,0.11,95.0,meteobridge,2013-12-07 22:57:00,
2013-12-07 15:02:00,46.8,24.8,30.11,NW,305,4.0,10.1,42,0.00,,,0.11,116.0,meteobridge,2013-12-07 23:02:00,
2013-12-07 15:07:00,46.8,24.8,30.11,NW,324,10.1,11.0,42,0.00,,,0.11,264.0,meteobridge,2013-12-07 23:07:00,
2013-12-07 15:12:00,46.6,25.3,30.11,NW,323,8.9,11.0,43,0.00,,,0.11,69.0,meteobridge,2013-12-07 23:12:00,
2013-12-07 15:17:00,46.2,25.5,30.11,WNW,288,6.9,10.1,44,0.00,,,0.11,54.0,meteobridge,2013-12-07 23:17:00,
2013-12-07 15:22:00,46.0,24.8,30.11,NNW,329,8.1,10.1,43,0.00,,,0.11,51.0,meteobridge,2013-12-07 23:22:00,
2013-12-07 15:27:00,46.0,25.3,30.12,NW,316,4.9,8.1,44,0.00,,,0.11,202.0,meteobridge,2013-12-07 23:27:00,
2013-12-07 15:32:00,46.0,25.3,30.12,WNW,299,8.1,8.9,44,0.00,,,0.11,185.0,meteobridge,2013-12-07 23:32:00,
2013-12-07 15:37:00,46.0,25.3,30.13,WNW,296,2.0,6.9,44,0.00,,,0.11,179.0,meteobridge,2013-12-07 23:37:00,
2013-12-07 15:42:00,46.0,25.3,30.13,NW,304,4.9,11.0,44,0.00,,,0.11,148.0,meteobridge,2013-12-07 23:42:00,
2013-12-07 15:47:00,46.0,25.3,30.13,NNW,330,2.9,4.9,44,0.00,,,0.11,60.0,meteobridge,2013-12-07 23:47:00,
2013-12-07 15:52:00,46.0,25.9,30.13,NW,315,8.1,8.1,45,0.00,,,0.11,49.0,meteobridge,2013-12-07 23:52:00,
2013-12-07 15:57:00,45.9,26.2,30.14,NW,315,4.9,4.9,46,0.00,,,0.11,37.0,meteobridge,2013-12-07 23:57:00,
2013-12-07 16:02:00,45.7,26.1,30.14,NW,312,8.9,10.1,46,0.00,,,0.11,37.0,meteobridge,2013-12-08 00:02:00,
2013-12-07 16:07:00,45.3,26.2,30.14,NW,321,4.0,8.1,47,0.00,,,0.11,26.0,meteobridge,2013-12-08 00:07:00,
2013-12-07 16:12:00,45.3,26.2,30.14,NNW,338,4.9,10.1,47,0.00,,,0.11,26.0,meteobridge,2013-12-08 00:12:00,
2013-12-07 16:17:00,45.1,26.6,30.14,NW,312,2.0,4.9,48,0.00,,,0.11,19.0,meteobridge,2013-12-08 00:17:00,
2013-12-07 16:22:00,45.0,26.4,30.14,NW,313,4.0,6.9,48,0.00,,,0.11,16.0,meteobridge,2013-12-08 00:22:00,
2013-12-07 16:27:00,45.0,27.0,30.14,NW,319,4.0,6.0,49,0.00,,,0.11,16.0,meteobridge,2013-12-08 00:27:00,
2013-12-07 16:32:00,44.8,27.3,30.14,NW,326,2.9,8.1,50,0.00,,,0.11,7.0,meteobridge,2013-12-08 00:32:00,
2013-12-07 16:37:00,44.4,27.0,30.14,WNW,301,2.0,2.9,50,0.00,,,0.11,0.0,meteobridge,2013-12-08 00:37:00,
2013-12-07 16:42:00,44.2,26.8,30.14,WNW,296,0.9,4.0,50,0.00,,,0.11,0.0,meteobridge,2013-12-08 00:42:00,
2013-12-07 16:48:00,44.2,27.3,30.14,NW,316,2.0,4.0,51,0.00,,,0.11,0.0,meteobridge,2013-12-08 00:48:00,
2013-12-07 16:53:00,44.1,27.1,30.14,WNW,287,2.0,2.9,51,0.00,,,0.11,0.0,meteobridge,2013-12-08 00:53:00,
2013-12-07 16:58:00,44.1,27.1,30.14,NNW,330,2.0,4.0,51,0.00,,,0.11,0.0,meteobridge,2013-12-08 00:58:00,
2013-12-07 17:03:00,43.9,27.3,30.15,NW,310,0.9,2.9,52,0.00,,,0.11,0.0,meteobridge,2013-12-08 01:03:00,
2013-12-07 17:08:00,43.9,27.3,30.14,NW,314,0.0,4.0,52,0.00,,,0.11,0.0,meteobridge,2013-12-08 01:08:00,
2013-12-07 17:13:00,43.7,26.2,30.15,NW,308,2.0,6.9,50,0.00,,,0.11,0.0,meteobridge,2013-12-08 01:13:00,
2013-12-07 17:18:00,43.5,26.6,30.15,WNW,297,0.9,2.0,51,0.00,,,0.11,0.0,meteobridge,2013-12-08 01:18:00,
2013-12-07 17:23:00,43.3,27.0,30.15,WNW,303,2.0,2.9,52,0.00,,,0.11,0.0,meteobridge,2013-12-08 01:23:00,
2013-12-07 17:28:00,43.2,26.8,30.15,West,263,2.0,2.9,52,0.00,,,0.11,0.0,meteobridge,2013-12-08 01:28:00,
2013-12-07 17:33:00,43.0,27.0,30.16,WNW,289,0.9,4.0,53,0.00,,,0.11,0.0,meteobridge,2013-12-08 01:33:00,
2013-12-07 17:38:00,42.6,27.1,30.16,West,270,2.9,6.0,54,0.00,,,0.11,0.0,meteobridge,2013-12-08 01:38:00,
2013-12-07 17:43:00,42.4,27.0,30.16,NW,308,2.0,4.0,54,0.00,,,0.11,0.0,meteobridge,2013-12-08 01:43:00,
2013-12-07 17:48:00,42.1,27.1,30.16,WNW,289,2.0,4.0,55,0.00,,,0.11,0.0,meteobridge,2013-12-08 01:48:00,
2013-12-07 17:53:00,41.9,27.0,30.16,West,273,0.9,2.9,55,0.00,,,0.11,0.0,meteobridge,2013-12-08 01:53:00,
2013-12-07 17:58:00,41.7,27.1,30.16,WSW,249,2.9,4.0,56,0.00,,,0.11,0.0,meteobridge,2013-12-08 01:58:00,
2013-12-07 18:03:00,41.5,27.5,30.16,West,274,0.9,4.0,57,0.00,,,0.11,0.0,meteobridge,2013-12-08 02:03:00,
2013-12-07 18:09:00,41.5,27.9,30.16,West,266,2.0,6.0,58,0.00,,,0.11,0.0,meteobridge,2013-12-08 02:09:00,
2013-12-07 18:14:00,41.4,28.0,30.17,WNW,292,2.0,2.0,59,0.00,,,0.11,0.0,meteobridge,2013-12-08 02:14:00,
2013-12-07 18:19:00,41.2,28.4,30.17,NW,305,2.0,2.0,60,0.00,,,0.11,0.0,meteobridge,2013-12-08 02:19:00,
2013-12-07 18:24:00,41.0,28.6,30.17,NW,320,2.0,2.9,61,0.00,,,0.11,0.0,meteobridge,2013-12-08 02:24:00,
2013-12-07 18:29:00,40.8,28.8,30.18,NNW,335,2.9,2.9,62,0.00,,,0.11,0.0,meteobridge,2013-12-08 02:29:00,
2013-12-07 18:34:00,40.6,28.6,30.18,NW,318,0.9,2.9,62,0.00,,,0.11,0.0,meteobridge,2013-12-08 02:34:00,
2013-12-07 18:39:00,40.5,28.9,30.18,NW,318,0.0,0.9,63,0.00,,,0.11,0.0,meteobridge,2013-12-08 02:39:00,
2013-12-07 18:45:00,40.3,28.8,30.18,NW,318,0.9,2.0,63,0.00,,,0.11,0.0,meteobridge,2013-12-08 02:45:00,
2013-12-07 18:50:00,39.9,29.1,30.18,West,279,0.9,2.9,65,0.00,,,0.11,0.0,meteobridge,2013-12-08 02:50:00,
2013-12-07 18:55:00,39.6,28.8,30.18,West,260,2.0,2.9,65,0.00,,,0.11,0.0,meteobridge,2013-12-08 02:55:00,
2013-12-07 19:00:00,39.4,28.9,30.18,WSW,251,2.0,2.0,66,0.00,,,0.11,0.0,meteobridge,2013-12-08 03:00:00,
2013-12-07 19:05:00,39.0,28.9,30.18,WSW,258,0.0,2.0,67,0.00,,,0.11,0.0,meteobridge,2013-12-08 03:05:00,
2013-12-07 19:10:00,38.8,29.1,30.18,WSW,257,2.0,2.0,68,0.00,,,0.11,0.0,meteobridge,2013-12-08 03:10:00,
2013-12-07 19:15:00,38.7,28.9,30.18,WSW,257,0.9,2.0,68,0.00,,,0.11,0.0,meteobridge,2013-12-08 03:15:00,
2013-12-07 19:20:00,38.3,28.8,30.18,WSW,257,0.0,0.0,68,0.00,,,0.11,0.0,meteobridge,2013-12-08 03:20:00,
2013-12-07 19:25:00,38.1,28.9,30.18,WSW,256,0.9,2.0,69,0.00,,,0.11,0.0,meteobridge,2013-12-08 03:25:00,
2013-12-07 19:31:00,37.8,28.9,30.18,WSW,258,0.9,0.9,70,0.00,,,0.11,0.0,meteobridge,2013-12-08 03:31:00,
2013-12-07 19:36:00,37.6,29.1,30.18,WSW,258,0.0,0.0,71,0.00,,,0.11,0.0,meteobridge,2013-12-08 03:36:00,
2013-12-07 19:41:00,37.2,29.1,30.18,WSW,258,0.0,0.9,72,0.00,,,0.11,0.0,meteobridge,2013-12-08 03:41:00,
2013-12-07 19:46:00,37.0,29.1,30.18,WSW,258,0.0,0.0,73,0.00,,,0.11,0.0,meteobridge,2013-12-08 03:46:00,
2013-12-07 19:51:00,36.9,28.9,30.18,WSW,258,0.0,0.9,73,0.00,,,0.11,0.0,meteobridge,2013-12-08 03:51:00,
2013-12-07 19:56:00,36.5,28.9,30.18,West,259,0.9,2.0,74,0.00,,,0.11,0.0,meteobridge,2013-12-08 03:56:00,
2013-12-07 20:01:00,36.3,28.8,30.19,West,259,0.0,0.9,74,0.00,,,0.11,0.0,meteobridge,2013-12-08 04:01:00,
2013-12-07 20:06:00,36.0,28.4,30.19,West,259,2.0,2.0,74,0.00,,,0.11,0.0,meteobridge,2013-12-08 04:06:00,
2013-12-07 20:11:00,35.8,28.6,30.19,SW,216,0.9,2.0,75,0.00,,,0.11,0.0,meteobridge,2013-12-08 04:11:00,
2013-12-07 20:16:00,35.6,28.8,30.19,SW,216,0.0,0.0,76,0.00,,,0.11,0.0,meteobridge,2013-12-08 04:16:00,
2013-12-07 20:22:00,35.4,28.9,30.19,SW,216,0.0,0.0,77,0.00,,,0.11,0.0,meteobridge,2013-12-08 04:22:00,
2013-12-07 20:27:00,35.2,28.8,30.19,SW,216,0.0,0.9,77,0.00,,,0.11,0.0,meteobridge,2013-12-08 04:27:00,
2013-12-07 20:32:00,35.1,28.6,30.19,South,179,2.0,2.9,77,0.00,,,0.11,0.0,meteobridge,2013-12-08 04:32:00,
2013-12-07 20:37:00,34.9,28.4,30.19,SSE,160,0.9,2.0,77,0.00,,,0.11,0.0,meteobridge,2013-12-08 04:37:00,
2013-12-07 20:42:00,34.7,28.6,30.20,SSE,160,0.9,2.0,78,0.00,,,0.11,0.0,meteobridge,2013-12-08 04:42:00,
2013-12-07 20:47:00,34.5,28.8,30.20,ESE,111,0.9,0.9,79,0.00,,,0.11,0.0,meteobridge,2013-12-08 04:47:00,
2013-12-07 20:52:00,34.3,28.6,30.20,SSW,203,2.0,2.0,79,0.00,,,0.11,0.0,meteobridge,2013-12-08 04:52:00,
2013-12-07 20:57:00,34.2,28.6,30.20,SW,233,2.0,2.0,80,0.00,,,0.11,0.0,meteobridge,2013-12-08 04:57:00,
2013-12-07 21:01:00,34.2,28.6,30.20,SW,233,0.0,2.0,80,0.00,,,0.11,0.0,meteobridge,2013-12-08 05:01:00,
2013-12-07 21:02:00,34.2,28.6,30.20,SW,233,0.0,0.9,80,0.00,,,0.11,0.0,meteobridge,2013-12-08 05:02:00,
2013-12-07 21:03:00,34.0,28.4,30.20,SW,233,0.0,0.9,80,0.00,,,0.11,0.0,meteobridge,2013-12-08 05:03:00,
2013-12-07 21:08:00,34.0,28.4,30.19,ESE,108,0.0,0.9,80,0.00,,,0.11,0.0,meteobridge,2013-12-08 05:08:00,
2013-12-07 21:13:00,33.8,28.6,30.19,ESE,108,0.0,0.0,81,0.00,,,0.11,0.0,meteobridge,2013-12-08 05:13:00,
2013-12-07 21:19:00,33.6,28.4,30.20,ESE,108,0.0,0.0,81,0.00,,,0.11,0.0,meteobridge,2013-12-08 05:19:00,
2013-12-07 21:24:00,33.4,28.2,30.20,ESE,108,0.0,0.0,81,0.00,,,0.11,0.0,meteobridge,2013-12-08 05:24:00,
2013-12-07 21:29:00,33.4,28.2,30.20,ESE,108,0.0,0.0,81,0.00,,,0.11,0.0,meteobridge,2013-12-08 05:29:00,
2013-12-07 21:34:00,33.3,28.4,30.20,ESE,108,0.9,0.9,82,0.00,,,0.11,0.0,meteobridge,2013-12-08 05:34:00,
2013-12-07 21:39:00,33.1,28.2,30.21,ESE,108,0.0,0.9,82,0.00,,,0.11,0.0,meteobridge,2013-12-08 05:39:00,
2013-12-07 21:44:00,32.9,28.2,30.21,ESE,108,0.0,0.9,83,0.00,,,0.11,0.0,meteobridge,2013-12-08 05:44:00,
2013-12-07 21:50:00,32.7,28.2,30.22,ESE,108,0.0,0.9,83,0.00,,,0.11,0.0,meteobridge,2013-12-08 05:50:00,
2013-12-07 21:55:00,32.7,28.2,30.21,ESE,108,0.0,0.0,83,0.00,,,0.11,0.0,meteobridge,2013-12-08 05:55:00,
2013-12-07 22:00:00,32.5,28.0,30.22,ESE,108,0.9,2.0,83,0.00,,,0.11,0.0,meteobridge,2013-12-08 06:00:00,
2013-12-07 22:05:00,32.4,27.9,30.22,ESE,107,0.0,0.9,83,0.00,,,0.11,0.0,meteobridge,2013-12-08 06:05:00,
2013-12-07 22:10:00,32.2,27.9,30.22,ESE,108,0.0,0.0,84,0.00,,,0.11,0.0,meteobridge,2013-12-08 06:10:00,
2013-12-07 22:15:00,32.2,28.2,30.22,East,83,0.9,2.0,85,0.00,,,0.11,0.0,meteobridge,2013-12-08 06:15:00,
2013-12-07 22:20:00,32.0,28.0,30.22,North,354,0.9,2.0,85,0.00,,,0.11,0.0,meteobridge,2013-12-08 06:20:00,
2013-12-07 22:25:00,31.8,28.0,30.22,North,354,0.0,2.0,86,0.00,,,0.11,0.0,meteobridge,2013-12-08 06:25:00,
2013-12-07 22:30:00,31.8,28.0,30.23,North,354,0.9,2.0,86,0.00,,,0.11,0.0,meteobridge,2013-12-08 06:30:00,
2013-12-07 22:36:00,31.8,28.0,30.23,North,354,0.9,0.9,86,0.00,,,0.11,0.0,meteobridge,2013-12-08 06:36:00,
2013-12-07 22:41:00,31.8,28.0,30.23,North,354,2.0,2.0,86,0.00,,,0.11,0.0,meteobridge,2013-12-08 06:41:00,
2013-12-07 22:46:00,31.8,28.0,30.23,North,354,0.9,0.9,86,0.00,,,0.11,0.0,meteobridge,2013-12-08 06:46:00,
2013-12-07 22:51:00,31.6,27.9,30.23,North,354,0.0,0.0,86,0.00,,,0.11,0.0,meteobridge,2013-12-08 06:51:00,
2013-12-07 22:56:00,31.6,27.9,30.23,North,354,0.0,0.0,86,0.00,,,0.11,0.0,meteobridge,2013-12-08 06:56:00,
2013-12-07 23:01:00,31.6,27.9,30.23,North,354,0.0,0.9,86,0.00,,,0.11,0.0,meteobridge,2013-12-08 07:01:00,
2013-12-07 23:07:00,31.5,27.7,30.23,North,354,0.9,0.9,86,0.00,,,0.11,0.0,meteobridge,2013-12-08 07:07:00,
2013-12-07 23:12:00,31.5,27.7,30.23,North,354,0.0,0.9,86,0.00,,,0.11,0.0,meteobridge,2013-12-08 07:12:00,
2013-12-07 23:17:00,31.3,27.5,30.23,North,354,0.9,0.9,86,0.00,,,0.11,0.0,meteobridge,2013-12-08 07:17:00,
2013-12-07 23:22:00,31.1,27.7,30.23,NW,313,0.0,2.0,87,0.00,,,0.11,0.0,meteobridge,2013-12-08 07:22:00,
2013-12-07 23:26:00,30.9,27.5,30.23,NW,313,0.0,0.0,87,0.00,,,0.11,0.0,meteobridge,2013-12-08 07:26:00,
2013-12-07 23:32:00,30.9,27.5,30.24,NW,313,0.0,0.0,87,0.00,,,0.11,0.0,meteobridge,2013-12-08 07:32:00,
2013-12-07 23:37:00,30.7,27.1,30.24,NW,313,0.0,0.0,86,0.00,,,0.11,0.0,meteobridge,2013-12-08 07:37:00,
2013-12-07 23:42:00,30.6,27.1,30.24,NW,313,0.0,0.0,87,0.00,,,0.11,0.0,meteobridge,2013-12-08 07:42:00,
2013-12-07 23:47:00,30.6,27.1,30.25,NW,313,0.9,0.9,87,0.00,,,0.11,0.0,meteobridge,2013-12-08 07:47:00,
2013-12-07 23:52:00,30.4,27.0,30.25,NW,313,0.0,0.9,87,0.00,,,0.11,0.0,meteobridge,2013-12-08 07:52:00,
2013-12-07 23:57:00,30.2,26.8,30.25,NW,313,0.0,0.9,87,0.00,,,0.11,0.0,meteobridge,2013-12-08 07:57:00,